Lobo

Go HERE for most recent data if this page is not up to date.

Jump to table bottom
Date/Time Temp deg F RH % 24 Hr Snow (in) Snow Depth (in) H2O (in)
12/02 18:00 38.2 59 -0.1 11.8 0.00
12/02 17:00 39.2 56 -0.2 11.6 0.00
12/02 16:00 40.5 55 -0.3 11.6 0.00
12/02 15:00 41.7 54 -0.2 11.7 0.00
12/02 14:00 43.1 51 -0.3 11.7 0.00
12/02 13:00 42.9 49 -0.4 11.5 0.00
12/02 12:00 42.6 54 -0.2 12.0 0.00
12/02 11:00 42.5 52 -0.3 11.8 0.00
12/02 10:00 41.6 54 -0.2 12.0 0.00
12/02 09:00 40.6 56 -0.3 11.9 0.00
12/02 08:00 40.1 60 -0.2 12.1 0.00
12/02 07:00 40.5 59 -0.3 11.9 0.00
12/02 06:00 40.5 57 -0.2 12.1 0.00
12/02 05:00 40.9 58 -0.3 12.0 0.00
12/02 04:00 40.9 57 -0.2 12.1 0.00
12/02 03:00 40.7 57 -0.2 12.0 0.00
12/02 02:00 40.0 58 -0.2 12.2 0.00
12/02 01:00 39.9 61 -0.2 12.2 0.00
12/02 00:00 39.8 62 -0.2 12.2 0.00
12/01 23:00 39.9 63 -0.2 12.3 0.00
12/01 22:00 39.8 63 -0.2 12.2 0.00
12/01 21:00 39.7 64 -0.2 12.3 0.00
12/01 20:00 40.0 65 -0.2 12.3 0.00
12/01 19:00 40.3 64 -0.2 12.2 0.00
12/01 18:00 40.6 64 -0.2 12.4 0.00
12/01 17:00 41.0 64 -0.2 12.3 0.00
12/01 16:00 41.6 61 -0.3 12.3 0.00
12/01 15:00 42.1 61 -0.2 12.3 0.00
12/01 14:00 43.6 61 -0.3 12.4 0.00
12/01 13:00 44.0 57 -0.3 12.5 0.00
12/01 12:00 42.7 59 -0.3 12.8 0.00
12/01 11:00 39.3 63 -0.2 13.1 0.00
12/01 10:00 37.2 72 -0.1 13.5 0.00
12/01 09:00 35.3 76 -0.1 13.6 0.00
12/01 08:00 35.0 81 -0.0 13.8 0.00
12/01 07:00 35.5 82 -0.0 13.7 0.00
12/01 06:00 34.7 82 -0.0 13.7 0.00
12/01 05:00 35.8 88 -0.0 13.9 0.00
12/01 04:00 35.9 79 -0.0 13.7 0.00
12/01 03:00 35.9 81 -0.1 13.7 0.00
12/01 02:00 35.0 79 -0.0 13.8 0.00
12/01 01:00 33.2 88 0.0 14.1 0.00
12/01 00:00 33.9 85 -0.0 14.0 0.00
.